sensor_id;sensor_type;location;lat;lon;timestamp;pressure;altitude;pressure_sealevel;temperature;humidity
82395;BME280;72031;51.786;4.662;2023-11-19T00:02:22;100941.84;;;13.43;93.32
82395;BME280;72031;51.786;4.662;2023-11-19T00:04:47;100942.81;;;13.42;93.33
82395;BME280;72031;51.786;4.662;2023-11-19T00:07:13;100947.06;;;13.44;92.50
82395;BME280;72031;51.786;4.662;2023-11-19T00:09:39;100933.78;;;13.43;93.28
82395;BME280;72031;51.786;4.662;2023-11-19T00:12:06;100932.34;;;13.39;92.63
82395;BME280;72031;51.786;4.662;2023-11-19T00:14:33;100932.56;;;13.36;92.96
82395;BME280;72031;51.786;4.662;2023-11-19T00:16:58;100920.78;;;13.38;92.73
82395;BME280;72031;51.786;4.662;2023-11-19T00:19:24;100924.53;;;13.36;93.19
82395;BME280;72031;51.786;4.662;2023-11-19T00:21:49;100934.78;;;13.31;92.83
82395;BME280;72031;51.786;4.662;2023-11-19T00:24:15;100935.63;;;13.31;93.21
82395;BME280;72031;51.786;4.662;2023-11-19T00:26:42;100943.56;;;13.33;92.95
82395;BME280;72031;51.786;4.662;2023-11-19T00:29:07;100941.00;;;13.31;93.08
82395;BME280;72031;51.786;4.662;2023-11-19T00:31:33;100940.38;;;13.39;92.13
82395;BME280;72031;51.786;4.662;2023-11-19T00:33:59;100946.09;;;13.34;92.64
82395;BME280;72031;51.786;4.662;2023-11-19T00:36:24;100945.25;;;13.34;92.28
82395;BME280;72031;51.786;4.662;2023-11-19T00:38:51;100939.63;;;13.37;91.99
82395;BME280;72031;51.786;4.662;2023-11-19T00:41:18;100944.41;;;13.33;91.54
82395;BME280;72031;51.786;4.662;2023-11-19T00:43:43;100943.44;;;13.34;91.94
82395;BME280;72031;51.786;4.662;2023-11-19T00:46:09;100937.59;;;13.40;91.95
82395;BME280;72031;51.786;4.662;2023-11-19T00:48:36;100942.97;;;13.29;91.42
82395;BME280;72031;51.786;4.662;2023-11-19T00:51:01;100937.59;;;13.29;91.35
82395;BME280;72031;51.786;4.662;2023-11-19T00:53:27;100948.66;;;13.24;91.53
82395;BME280;72031;51.786;4.662;2023-11-19T00:55:53;100947.94;;;13.22;91.11
82395;BME280;72031;51.786;4.662;2023-11-19T00:58:18;100938.53;;;13.28;91.26
82395;BME280;72031;51.786;4.662;2023-11-19T01:00:44;100928.22;;;13.23;90.55
82395;BME280;72031;51.786;4.662;2023-11-19T01:03:10;100916.75;;;13.21;91.02
82395;BME280;72031;51.786;4.662;2023-11-19T01:05:36;100912.97;;;13.24;89.99
82395;BME280;72031;51.786;4.662;2023-11-19T01:08:03;100905.06;;;13.22;90.85
82395;BME280;72031;51.786;4.662;2023-11-19T01:10:30;100891.97;;;13.18;89.88
82395;BME280;72031;51.786;4.662;2023-11-19T01:12:55;100896.31;;;13.20;89.68
82395;BME280;72031;51.786;4.662;2023-11-19T01:15:21;100919.03;;;13.15;90.28
82395;BME280;72031;51.786;4.662;2023-11-19T01:17:46;100907.69;;;13.11;89.43
82395;BME280;72031;51.786;4.662;2023-11-19T01:20:12;100906.84;;;13.11;89.46
82395;BME280;72031;51.786;4.662;2023-11-19T01:22:39;100917.94;;;13.17;89.03
82395;BME280;72031;51.786;4.662;2023-11-19T01:25:06;100923.91;;;13.10;89.07
82395;BME280;72031;51.786;4.662;2023-11-19T01:27:31;100918.06;;;13.05;89.38
82395;BME280;72031;51.786;4.662;2023-11-19T01:29:59;100921.34;;;13.08;88.67
82395;BME280;72031;51.786;4.662;2023-11-19T01:32:27;100938.28;;;12.98;89.04
82395;BME280;72031;51.786;4.662;2023-11-19T01:34:52;100907.22;;;12.95;88.74
82395;BME280;72031;51.786;4.662;2023-11-19T01:37:18;100907.69;;;12.89;88.96
82395;BME280;72031;51.786;4.662;2023-11-19T01:39:44;100914.38;;;12.83;89.33
82395;BME280;72031;51.786;4.662;2023-11-19T01:42:10;100895.50;;;12.85;88.65
82395;BME280;72031;51.786;4.662;2023-11-19T01:44:37;100900.75;;;12.75;89.18
82395;BME280;72031;51.786;4.662;2023-11-19T01:47:02;100910.34;;;12.78;89.01
82395;BME280;72031;51.786;4.662;2023-11-19T01:49:30;100903.53;;;12.74;88.69
82395;BME280;72031;51.786;4.662;2023-11-19T01:51:57;100910.00;;;12.71;88.68
82395;BME280;72031;51.786;4.662;2023-11-19T01:54:24;100902.94;;;12.70;88.89
82395;BME280;72031;51.786;4.662;2023-11-19T01:56:50;100905.63;;;12.70;88.29
82395;BME280;72031;51.786;4.662;2023-11-19T01:59:18;100905.84;;;12.67;88.77
82395;BME280;72031;51.786;4.662;2023-11-19T02:01:45;100906.81;;;12.66;88.90
82395;BME280;72031;51.786;4.662;2023-11-19T02:04:12;100910.94;;;12.59;88.99
82395;BME280;72031;51.786;4.662;2023-11-19T02:06:41;100920.56;;;12.61;88.99
82395;BME280;72031;51.786;4.662;2023-11-19T02:09:07;100912.63;;;12.60;89.21
82395;BME280;72031;51.786;4.662;2023-11-19T02:11:34;100917.97;;;12.60;88.89
82395;BME280;72031;51.786;4.662;2023-11-19T02:14:00;100924.56;;;12.56;89.23
82395;BME280;72031;51.786;4.662;2023-11-19T02:16:26;100938.41;;;12.50;89.12
82395;BME280;72031;51.786;4.662;2023-11-19T02:18:53;100934.75;;;12.51;88.70
82395;BME280;72031;51.786;4.662;2023-11-19T02:21:18;100922.34;;;12.50;88.82
82395;BME280;72031;51.786;4.662;2023-11-19T02:23:45;100912.84;;;12.46;89.42
82395;BME280;72031;51.786;4.662;2023-11-19T02:26:32;100919.06;;;12.46;89.34
82395;BME280;72031;51.786;4.662;2023-11-19T02:29:01;100916.50;;;12.45;89.30
82395;BME280;72031;51.786;4.662;2023-11-19T02:31:28;100919.19;;;12.45;89.17
82395;BME280;72031;51.786;4.662;2023-11-19T02:33:53;100928.06;;;12.45;88.70
82395;BME280;72031;51.786;4.662;2023-11-19T02:36:20;100914.16;;;12.40;88.85
82395;BME280;72031;51.786;4.662;2023-11-19T02:38:46;100918.41;;;12.31;89.08
82395;BME280;72031;51.786;4.662;2023-11-19T02:41:14;100921.19;;;12.30;89.66
82395;BME280;72031;51.786;4.662;2023-11-19T02:43:39;100911.34;;;12.30;88.75
82395;BME280;72031;51.786;4.662;2023-11-19T02:46:05;100919.38;;;12.30;88.44
82395;BME280;72031;51.786;4.662;2023-11-19T02:48:37;100917.78;;;12.28;88.58
82395;BME280;72031;51.786;4.662;2023-11-19T02:51:04;100921.91;;;12.21;89.40
82395;BME280;72031;51.786;4.662;2023-11-19T02:53:30;100917.41;;;12.21;89.03
82395;BME280;72031;51.786;4.662;2023-11-19T02:55:55;100917.59;;;12.18;89.03
82395;BME280;72031;51.786;4.662;2023-11-19T02:58:27;100933.06;;;12.15;88.25
82395;BME280;72031;51.786;4.662;2023-11-19T03:00:55;100922.09;;;12.18;88.21
82395;BME280;72031;51.786;4.662;2023-11-19T03:03:25;100926.84;;;12.14;87.96
82395;BME280;72031;51.786;4.662;2023-11-19T03:05:54;100918.78;;;12.03;88.33
82395;BME280;72031;51.786;4.662;2023-11-19T03:08:20;100923.91;;;12.06;88.45
82395;BME280;72031;51.786;4.662;2023-11-19T03:10:46;100919.72;;;12.02;88.15
82395;BME280;72031;51.786;4.662;2023-11-19T03:13:13;100927.25;;;11.97;87.50
82395;BME280;72031;51.786;4.662;2023-11-19T03:15:42;100921.47;;;12.03;87.47
82395;BME280;72031;51.786;4.662;2023-11-19T03:18:08;100915.34;;;12.01;87.97
82395;BME280;72031;51.786;4.662;2023-11-19T03:20:33;100912.59;;;12.02;87.50
82395;BME280;72031;51.786;4.662;2023-11-19T03:22:59;100902.34;;;11.96;87.45
82395;BME280;72031;51.786;4.662;2023-11-19T03:25:27;100902.94;;;12.00;87.46
82395;BME280;72031;51.786;4.662;2023-11-19T03:27:59;100902.66;;;11.92;87.55
82395;BME280;72031;51.786;4.662;2023-11-19T03:30:24;100892.94;;;11.91;86.92
82395;BME280;72031;51.786;4.662;2023-11-19T03:32:50;100891.34;;;11.88;86.58
82395;BME280;72031;51.786;4.662;2023-11-19T03:35:15;100894.88;;;11.89;86.69
82395;BME280;72031;51.786;4.662;2023-11-19T03:37:41;100891.84;;;11.93;86.19
82395;BME280;72031;51.786;4.662;2023-11-19T03:40:07;100901.94;;;11.90;86.92
82395;BME280;72031;51.786;4.662;2023-11-19T03:42:32;100903.41;;;11.94;86.53
82395;BME280;72031;51.786;4.662;2023-11-19T03:44:58;100915.44;;;11.88;87.02
82395;BME280;72031;51.786;4.662;2023-11-19T03:47:24;100921.50;;;11.90;87.32
82395;BME280;72031;51.786;4.662;2023-11-19T03:49:50;100908.75;;;11.94;87.40
82395;BME280;72031;51.786;4.662;2023-11-19T03:52:17;100915.19;;;11.91;87.45
82395;BME280;72031;51.786;4.662;2023-11-19T03:54:42;100914.03;;;11.82;88.04
82395;BME280;72031;51.786;4.662;2023-11-19T03:57:08;100907.28;;;11.90;86.79
82395;BME280;72031;51.786;4.662;2023-11-19T03:59:35;100916.03;;;11.92;86.94
82395;BME280;72031;51.786;4.662;2023-11-19T04:02:01;100908.88;;;11.92;86.58
82395;BME280;72031;51.786;4.662;2023-11-19T04:04:28;100926.13;;;11.88;86.65
82395;BME280;72031;51.786;4.662;2023-11-19T04:06:55;100916.50;;;11.86;86.70
82395;BME280;72031;51.786;4.662;2023-11-19T04:09:20;100916.50;;;11.86;87.33
82395;BME280;72031;51.786;4.662;2023-11-19T04:11:46;100927.41;;;11.82;87.50
82395;BME280;72031;51.786;4.662;2023-11-19T04:14:13;100923.56;;;11.87;86.60
82395;BME280;72031;51.786;4.662;2023-11-19T04:16:39;100915.88;;;11.82;87.48
82395;BME280;72031;51.786;4.662;2023-11-19T04:19:04;100914.16;;;11.81;86.69
82395;BME280;72031;51.786;4.662;2023-11-19T04:21:30;100917.38;;;11.73;87.64
82395;BME280;72031;51.786;4.662;2023-11-19T04:23:56;100916.63;;;11.71;87.25
82395;BME280;72031;51.786;4.662;2023-11-19T04:26:22;100918.56;;;11.69;87.16
82395;BME280;72031;51.786;4.662;2023-11-19T04:28:47;100921.00;;;11.72;87.40
82395;BME280;72031;51.786;4.662;2023-11-19T04:31:15;100919.31;;;11.71;86.56
82395;BME280;72031;51.786;4.662;2023-11-19T04:33:41;100933.16;;;11.76;85.96
82395;BME280;72031;51.786;4.662;2023-11-19T04:36:07;100922.47;;;11.76;85.75
82395;BME280;72031;51.786;4.662;2023-11-19T04:38:33;100933.53;;;11.72;85.60
82395;BME280;72031;51.786;4.662;2023-11-19T04:40:58;100929.03;;;11.72;85.67
82395;BME280;72031;51.786;4.662;2023-11-19T04:43:24;100943.38;;;11.71;85.72
82395;BME280;72031;51.786;4.662;2023-11-19T04:45:49;100937.66;;;11.76;86.22
82395;BME280;72031;51.786;4.662;2023-11-19T04:48:15;100952.13;;;11.73;85.95
82395;BME280;72031;51.786;4.662;2023-11-19T04:50:40;100943.25;;;11.73;86.13
82395;BME280;72031;51.786;4.662;2023-11-19T04:53:06;100936.63;;;11.66;85.86
82395;BME280;72031;51.786;4.662;2023-11-19T04:55:31;100935.56;;;11.68;86.43
82395;BME280;72031;51.786;4.662;2023-11-19T04:57:56;100933.00;;;11.67;85.71
82395;BME280;72031;51.786;4.662;2023-11-19T05:00:22;100930.19;;;11.68;86.15
82395;BME280;72031;51.786;4.662;2023-11-19T05:02:47;100930.19;;;11.68;86.07
82395;BME280;72031;51.786;4.662;2023-11-19T05:05:15;100928.50;;;11.67;86.21
82395;BME280;72031;51.786;4.662;2023-11-19T05:07:41;100927.66;;;11.67;85.71
82395;BME280;72031;51.786;4.662;2023-11-19T05:10:07;100929.81;;;11.62;86.25
82395;BME280;72031;51.786;4.662;2023-11-19T05:12:32;100936.03;;;11.62;86.02
82395;BME280;72031;51.786;4.662;2023-11-19T05:14:58;100935.91;;;11.64;86.54
82395;BME280;72031;51.786;4.662;2023-11-19T05:17:23;100933.34;;;11.62;87.38
82395;BME280;72031;51.786;4.662;2023-11-19T05:19:49;100944.91;;;11.63;86.79
82395;BME280;72031;51.786;4.662;2023-11-19T05:22:14;100945.88;;;11.62;87.21
82395;BME280;72031;51.786;4.662;2023-11-19T05:24:40;100934.41;;;11.60;86.73
82395;BME280;72031;51.786;4.662;2023-11-19T05:27:06;100937.19;;;11.58;87.21
82395;BME280;72031;51.786;4.662;2023-11-19T05:29:33;100939.44;;;11.64;87.51
82395;BME280;72031;51.786;4.662;2023-11-19T05:31:59;100936.88;;;11.63;87.27
82395;BME280;72031;51.786;4.662;2023-11-19T05:34:24;100939.38;;;11.53;87.66
82395;BME280;72031;51.786;4.662;2023-11-19T05:36:50;100946.06;;;11.59;87.53
82395;BME280;72031;51.786;4.662;2023-11-19T05:39:16;100936.34;;;11.57;87.22
82395;BME280;72031;51.786;4.662;2023-11-19T05:41:44;100939.88;;;11.58;87.37
82395;BME280;72031;51.786;4.662;2023-11-19T05:44:09;100930.38;;;11.54;87.12
82395;BME280;72031;51.786;4.662;2023-11-19T05:46:35;100928.66;;;11.53;86.37
82395;BME280;72031;51.786;4.662;2023-11-19T05:49:05;100935.50;;;11.57;86.46
82395;BME280;72031;51.786;4.662;2023-11-19T05:51:31;100934.09;;;11.51;86.22
82395;BME280;72031;51.786;4.662;2023-11-19T05:53:57;100927.69;;;11.54;86.08
82395;BME280;72031;51.786;4.662;2023-11-19T05:56:22;100918.72;;;11.55;86.04
82395;BME280;72031;51.786;4.662;2023-11-19T05:58:48;100917.97;;;11.53;85.94
82395;BME280;72031;51.786;4.662;2023-11-19T06:01:14;100920.97;;;11.48;86.51
82395;BME280;72031;51.786;4.662;2023-11-19T06:03:40;100911.13;;;11.49;86.48
82395;BME280;72031;51.786;4.662;2023-11-19T06:06:06;100902.16;;;11.50;86.15
82395;BME280;72031;51.786;4.662;2023-11-19T06:08:31;100909.66;;;11.45;87.12
82395;BME280;72031;51.786;4.662;2023-11-19T06:10:57;100903.56;;;11.43;87.22
82395;BME280;72031;51.786;4.662;2023-11-19T06:13:23;100912.78;;;11.39;86.97
82395;BME280;72031;51.786;4.662;2023-11-19T06:15:50;100918.03;;;11.27;87.24
82395;BME280;72031;51.786;4.662;2023-11-19T06:18:16;100933.53;;;11.22;87.53
82395;BME280;72031;51.786;4.662;2023-11-19T06:20:42;100918.59;;;11.20;88.22
82395;BME280;72031;51.786;4.662;2023-11-19T06:23:07;100907.78;;;11.21;87.69
82395;BME280;72031;51.786;4.662;2023-11-19T06:25:33;100921.16;;;11.21;87.46
82395;BME280;72031;51.786;4.662;2023-11-19T06:28:00;100921.16;;;11.21;87.76
82395;BME280;72031;51.786;4.662;2023-11-19T06:30:25;100931.81;;;11.21;87.50
82395;BME280;72031;51.786;4.662;2023-11-19T06:32:53;100932.44;;;11.25;87.63
82395;BME280;72031;51.786;4.662;2023-11-19T06:35:19;100927.75;;;11.16;87.44
82395;BME280;72031;51.786;4.662;2023-11-19T06:37:44;100925.22;;;11.14;87.76
82395;BME280;72031;51.786;4.662;2023-11-19T06:40:10;100923.50;;;11.13;87.41
82395;BME280;72031;51.786;4.662;2023-11-19T06:42:37;100936.31;;;11.08;87.61
82395;BME280;72031;51.786;4.662;2023-11-19T06:45:04;100935.81;;;11.03;87.63
82395;BME280;72031;51.786;4.662;2023-11-19T06:47:29;100943.16;;;11.12;86.79
82395;BME280;72031;51.786;4.662;2023-11-19T06:49:55;100938.13;;;11.08;87.82
82395;BME280;72031;51.786;4.662;2023-11-19T06:52:21;100954.50;;;11.03;87.80
82395;BME280;72031;51.786;4.662;2023-11-19T06:54:46;100965.38;;;11.00;87.52
82395;BME280;72031;51.786;4.662;2023-11-19T06:57:12;100965.38;;;11.00;87.88
82395;BME280;72031;51.786;4.662;2023-11-19T06:59:39;100969.88;;;10.99;87.47
82395;BME280;72031;51.786;4.662;2023-11-19T07:02:05;100977.56;;;11.04;87.69
82395;BME280;72031;51.786;4.662;2023-11-19T07:04:31;100974.91;;;11.04;87.13
82395;BME280;72031;51.786;4.662;2023-11-19T07:06:58;100976.94;;;11.13;86.75
82395;BME280;72031;51.786;4.662;2023-11-19T07:09:25;100985.06;;;11.12;87.30
82395;BME280;72031;51.786;4.662;2023-11-19T07:11:50;100976.50;;;11.07;86.84
82395;BME280;72031;51.786;4.662;2023-11-19T07:14:18;100982.81;;;11.06;86.30
82395;BME280;72031;51.786;4.662;2023-11-19T07:16:44;100975.88;;;11.03;86.67
82395;BME280;72031;51.786;4.662;2023-11-19T07:19:10;100972.00;;;11.07;86.92
82395;BME280;72031;51.786;4.662;2023-11-19T07:21:36;100976.91;;;11.00;86.76
82395;BME280;72031;51.786;4.662;2023-11-19T07:24:09;100972.66;;;10.98;87.14
82395;BME280;72031;51.786;4.662;2023-11-19T07:26:36;100966.16;;;11.02;87.29
82395;BME280;72031;51.786;4.662;2023-11-19T07:29:02;100970.28;;;11.06;87.08
82395;BME280;72031;51.786;4.662;2023-11-19T07:31:28;100973.50;;;10.98;87.31
82395;BME280;72031;51.786;4.662;2023-11-19T07:33:53;100973.09;;;11.05;87.26
82395;BME280;72031;51.786;4.662;2023-11-19T07:36:19;100973.94;;;11.05;87.15
82395;BME280;72031;51.786;4.662;2023-11-19T07:38:45;100978.41;;;11.05;87.42
82395;BME280;72031;51.786;4.662;2023-11-19T07:41:11;100977.88;;;11.12;86.58
82395;BME280;72031;51.786;4.662;2023-11-19T07:43:43;100984.19;;;11.11;86.77
82395;BME280;72031;51.786;4.662;2023-11-19T07:46:13;100967.09;;;11.14;86.62
82395;BME280;72031;51.786;4.662;2023-11-19T07:48:40;100968.69;;;11.16;86.29
82395;BME280;72031;51.786;4.662;2023-11-19T07:51:06;100970.72;;;11.13;86.73
82395;BME280;72031;51.786;4.662;2023-11-19T07:53:31;100979.06;;;11.21;85.86
82395;BME280;72031;51.786;4.662;2023-11-19T07:55:58;100977.13;;;11.23;86.53
82395;BME280;72031;51.786;4.662;2023-11-19T07:58:25;100975.84;;;11.28;85.91
82395;BME280;72031;51.786;4.662;2023-11-19T08:00:51;100981.19;;;11.28;85.75
82395;BME280;72031;51.786;4.662;2023-11-19T08:03:17;100979.25;;;11.31;86.46
82395;BME280;72031;51.786;4.662;2023-11-19T08:05:45;100982.25;;;11.39;85.59
82395;BME280;72031;51.786;4.662;2023-11-19T08:08:11;100983.53;;;11.46;85.50
82395;BME280;72031;51.786;4.662;2023-11-19T08:10:37;100981.59;;;11.48;86.41
82395;BME280;72031;51.786;4.662;2023-11-19T08:13:02;100997.31;;;11.52;85.46
82395;BME280;72031;51.786;4.662;2023-11-19T08:15:28;100978.91;;;11.48;85.94
82395;BME280;72031;51.786;4.662;2023-11-19T08:17:53;100981.34;;;11.51;85.21
82395;BME280;72031;51.786;4.662;2023-11-19T08:20:19;100990.88;;;11.55;85.16
82395;BME280;72031;51.786;4.662;2023-11-19T08:22:44;100999.53;;;11.59;85.59
82395;BME280;72031;51.786;4.662;2023-11-19T08:25:10;100989.06;;;11.43;85.70
82395;BME280;72031;51.786;4.662;2023-11-19T08:27:35;100997.09;;;11.43;85.80
82395;BME280;72031;51.786;4.662;2023-11-19T08:30:01;101006.72;;;11.45;85.10
82395;BME280;72031;51.786;4.662;2023-11-19T08:32:27;100993.78;;;11.39;85.31
82395;BME280;72031;51.786;4.662;2023-11-19T08:34:53;101007.03;;;11.41;85.62
82395;BME280;72031;51.786;4.662;2023-11-19T08:37:19;100995.28;;;11.31;85.75
82395;BME280;72031;51.786;4.662;2023-11-19T08:39:50;101005.34;;;11.40;85.32
82395;BME280;72031;51.786;4.662;2023-11-19T08:42:17;101005.09;;;11.43;86.04
82395;BME280;72031;51.786;4.662;2023-11-19T08:44:43;100995.38;;;11.42;85.21
82395;BME280;72031;51.786;4.662;2023-11-19T08:47:12;101003.19;;;11.45;84.84
82395;BME280;72031;51.786;4.662;2023-11-19T08:49:39;100993.56;;;11.55;84.05
82395;BME280;72031;51.786;4.662;2023-11-19T08:52:05;100998.25;;;11.51;84.31
82395;BME280;72031;51.786;4.662;2023-11-19T08:54:32;100991.84;;;11.54;84.90
82395;BME280;72031;51.786;4.662;2023-11-19T08:56:58;100988.63;;;11.62;84.14
82395;BME280;72031;51.786;4.662;2023-11-19T08:59:24;100981.41;;;11.75;83.59
82395;BME280;72031;51.786;4.662;2023-11-19T09:01:50;100989.03;;;11.81;83.30
82395;BME280;72031;51.786;4.662;2023-11-19T09:04:15;100989.44;;;11.88;83.35
82395;BME280;72031;51.786;4.662;2023-11-19T09:06:41;100978.28;;;11.94;82.66
82395;BME280;72031;51.786;4.662;2023-11-19T09:09:08;100984.22;;;11.86;83.90
82395;BME280;72031;51.786;4.662;2023-11-19T09:11:33;100986.66;;;11.76;83.49
82395;BME280;72031;51.786;4.662;2023-11-19T09:13:59;100988.25;;;11.79;83.82
82395;BME280;72031;51.786;4.662;2023-11-19T09:16:24;100991.59;;;11.82;82.79
82395;BME280;72031;51.786;4.662;2023-11-19T09:18:51;100985.16;;;11.85;83.59
82395;BME280;72031;51.786;4.662;2023-11-19T09:21:16;100989.66;;;11.84;83.77
82395;BME280;72031;51.786;4.662;2023-11-19T09:23:41;100983.69;;;11.81;83.48
82395;BME280;72031;51.786;4.662;2023-11-19T09:26:10;100991.78;;;11.92;84.21
82395;BME280;72031;51.786;4.662;2023-11-19T09:28:35;100982.16;;;11.90;83.79
82395;BME280;72031;51.786;4.662;2023-11-19T09:31:01;100990.47;;;11.98;83.00
82395;BME280;72031;51.786;4.662;2023-11-19T09:33:30;100981.47;;;11.99;84.12
82395;BME280;72031;51.786;4.662;2023-11-19T09:35:55;100990.03;;;12.04;82.99
82395;BME280;72031;51.786;4.662;2023-11-19T09:38:21;100977.97;;;11.98;82.90
82395;BME280;72031;51.786;4.662;2023-11-19T09:40:46;100978.56;;;12.02;83.26
82395;BME280;72031;51.786;4.662;2023-11-19T09:43:14;100979.53;;;12.01;82.88
82395;BME280;72031;51.786;4.662;2023-11-19T09:45:48;100984.97;;;12.12;83.31
82395;BME280;72031;51.786;4.662;2023-11-19T09:48:18;100997.44;;;12.24;82.90
82395;BME280;72031;51.786;4.662;2023-11-19T09:50:46;100994.78;;;12.35;82.45
82395;BME280;72031;51.786;4.662;2023-11-19T09:53:12;100987.28;;;12.40;81.59
82395;BME280;72031;51.786;4.662;2023-11-19T09:55:38;100992.88;;;12.37;81.84
82395;BME280;72031;51.786;4.662;2023-11-19T09:58:05;100982.91;;;12.39;82.87
82395;BME280;72031;51.786;4.662;2023-11-19T10:00:32;100984.50;;;12.42;82.25
82395;BME280;72031;51.786;4.662;2023-11-19T10:02:59;100985.34;;;12.43;82.41
82395;BME280;72031;51.786;4.662;2023-11-19T10:05:25;100980.84;;;12.43;82.78
82395;BME280;72031;51.786;4.662;2023-11-19T10:07:52;100981.13;;;12.51;81.68
82395;BME280;72031;51.786;4.662;2023-11-19T10:10:18;100990.97;;;12.51;82.19
82395;BME280;72031;51.786;4.662;2023-11-19T10:12:47;100984.75;;;12.50;81.53
82395;BME280;72031;51.786;4.662;2023-11-19T10:15:21;100983.88;;;12.38;82.55
82395;BME280;72031;51.786;4.662;2023-11-19T10:17:50;100986.38;;;12.53;81.70
82395;BME280;72031;51.786;4.662;2023-11-19T10:20:16;100987.84;;;12.57;82.06
82395;BME280;72031;51.786;4.662;2023-11-19T10:22:41;100975.06;;;12.60;82.05
82395;BME280;72031;51.786;4.662;2023-11-19T10:25:25;100986.28;;;12.65;81.02
82395;BME280;72031;51.786;4.662;2023-11-19T10:27:54;100980.66;;;12.57;81.33
82395;BME280;72031;51.786;4.662;2023-11-19T10:30:27;100984.22;;;12.69;81.18
82395;BME280;72031;51.786;4.662;2023-11-19T10:33:11;100981.31;;;12.72;82.18
82395;BME280;72031;51.786;4.662;2023-11-19T10:38:19;100983.81;;;12.86;81.43
82395;BME280;72031;51.786;4.662;2023-11-19T10:40:44;100983.03;;;12.73;80.36
82395;BME280;72031;51.786;4.662;2023-11-19T10:43:10;100980.88;;;12.78;81.21
82395;BME280;72031;51.786;4.662;2023-11-19T10:45:37;100976.50;;;12.88;80.55
82395;BME280;72031;51.786;4.662;2023-11-19T10:48:04;100979.66;;;12.93;79.85
82395;BME280;72031;51.786;4.662;2023-11-19T10:50:34;100978.19;;;12.89;80.99
82395;BME280;72031;51.786;4.662;2023-11-19T10:53:02;100973.44;;;12.82;80.73
82395;BME280;72031;51.786;4.662;2023-11-19T10:55:33;100969.31;;;12.89;80.78
82395;BME280;72031;51.786;4.662;2023-11-19T10:58:05;100975.16;;;12.94;81.13
82395;BME280;72031;51.786;4.662;2023-11-19T11:00:44;100979.66;;;12.93;80.84
82395;BME280;72031;51.786;4.662;2023-11-19T11:03:24;100971.34;;;12.74;80.82
82395;BME280;72031;51.786;4.662;2023-11-19T11:05:51;100965.13;;;12.62;81.85
82395;BME280;72031;51.786;4.662;2023-11-19T11:08:18;100966.41;;;12.57;81.59
82395;BME280;72031;51.786;4.662;2023-11-19T11:10:53;100964.69;;;12.45;81.65
82395;BME280;72031;51.786;4.662;2023-11-19T11:13:19;100953.00;;;12.46;82.13
82395;BME280;72031;51.786;4.662;2023-11-19T11:15:49;100953.31;;;12.65;81.89
82395;BME280;72031;51.786;4.662;2023-11-19T11:18:16;100960.13;;;12.69;81.37
82395;BME280;72031;51.786;4.662;2023-11-19T11:20:45;100962.78;;;12.69;81.47
82395;BME280;72031;51.786;4.662;2023-11-19T11:23:47;100953.81;;;12.70;82.27
82395;BME280;72031;51.786;4.662;2023-11-19T11:26:42;100946.31;;;12.98;82.09
82395;BME280;72031;51.786;4.662;2023-11-19T11:29:45;100951.91;;;13.06;81.65
82395;BME280;72031;51.786;4.662;2023-11-19T11:32:37;100952.59;;;12.85;82.02
82395;BME280;72031;51.786;4.662;2023-11-19T11:38:01;100951.91;;;13.06;82.14
82395;BME280;72031;51.786;4.662;2023-11-19T11:40:28;100947.28;;;13.08;81.65
82395;BME280;72031;51.786;4.662;2023-11-19T11:42:53;100954.94;;;12.90;81.46
82395;BME280;72031;51.786;4.662;2023-11-19T11:45:35;100937.81;;;13.04;82.14
82395;BME280;72031;51.786;4.662;2023-11-19T11:48:14;100933.16;;;13.06;81.24
82395;BME280;72031;51.786;4.662;2023-11-19T11:50:57;100930.47;;;12.94;80.96
82395;BME280;72031;51.786;4.662;2023-11-19T11:53:24;100929.97;;;12.89;81.30
82395;BME280;72031;51.786;4.662;2023-11-19T11:58:27;100927.09;;;13.04;81.68
82395;BME280;72031;51.786;4.662;2023-11-19T12:00:53;100934.13;;;12.93;81.55
82395;BME280;72031;51.786;4.662;2023-11-19T12:03:22;100938.75;;;13.03;81.35
82395;BME280;72031;51.786;4.662;2023-11-19T12:05:49;100936.94;;;13.03;81.34
82395;BME280;72031;51.786;4.662;2023-11-19T12:08:18;100922.91;;;13.11;81.26
82395;BME280;72031;51.786;4.662;2023-11-19T12:10:49;100917.09;;;13.17;80.61
82395;BME280;72031;51.786;4.662;2023-11-19T12:13:20;100896.75;;;13.14;81.51
82395;BME280;72031;51.786;4.662;2023-11-19T12:18:32;100915.91;;;13.21;80.48
82395;BME280;72031;51.786;4.662;2023-11-19T12:21:01;100914.16;;;13.09;81.03
82395;BME280;72031;51.786;4.662;2023-11-19T12:23:31;100919.78;;;13.06;81.51
82395;BME280;72031;51.786;4.662;2023-11-19T12:25:58;100924.41;;;13.15;82.11
82395;BME280;72031;51.786;4.662;2023-11-19T12:28:24;100927.94;;;13.27;81.69
82395;BME280;72031;51.786;4.662;2023-11-19T12:30:52;100922.69;;;13.14;81.83
82395;BME280;72031;51.786;4.662;2023-11-19T12:33:21;100922.66;;;13.03;82.80
82395;BME280;72031;51.786;4.662;2023-11-19T12:35:47;100913.69;;;13.15;81.62
82395;BME280;72031;51.786;4.662;2023-11-19T12:38:23;100922.66;;;13.03;81.56
82395;BME280;72031;51.786;4.662;2023-11-19T12:41:09;100922.56;;;13.15;81.58
82395;BME280;72031;51.786;4.662;2023-11-19T12:43:38;100913.44;;;13.07;81.30
82395;BME280;72031;51.786;4.662;2023-11-19T12:46:17;100910.50;;;13.10;81.14
82395;BME280;72031;51.786;4.662;2023-11-19T12:48:46;100906.78;;;13.23;81.03
82395;BME280;72031;51.786;4.662;2023-11-19T12:51:12;100905.63;;;13.15;81.16
82395;BME280;72031;51.786;4.662;2023-11-19T12:53:52;100906.38;;;13.17;80.57
82395;BME280;72031;51.786;4.662;2023-11-19T12:56:21;100915.91;;;13.32;80.90
82395;BME280;72031;51.786;4.662;2023-11-19T12:58:47;100918.44;;;13.34;81.37
82395;BME280;72031;51.786;4.662;2023-11-19T13:01:17;100916.09;;;13.18;81.25
82395;BME280;72031;51.786;4.662;2023-11-19T13:03:44;100903.69;;;13.17;80.84